aviador You're here:

LFLB Decoded Metar

CHAMBERY in FRANCE
Report Time2018-01-21 06:30:00
UTC Time2018-01-21 06:54:16
Flight Rules vfr VFR
WindVRB at 04 kt
Visibility9999 m
Phenomena:N/A
Clouds:Broken 039 Hf
Broken 064 Hf
Broken 086 Hf
Expected CloudBase > 2,800 ft AGL from Temp-Dew spread
Ceiling3,900 ft
Temp10°C (ISA -3)
Dew Point03°C (62% RH)
AAT7.1°C
QNH1016 hPa
Density Alt377 ft
Elevation784 ft
Report Wrong Elevation
Raw Report
METAR LFLB 210630Z AUTO VRB04KT 9999 BKN039 BKN064 BKN086 10/03 Q1016
NOSIG=

Extra information for LFLB:More info

Metar Taf Metar & Taf Last 4 Metars F.Rules Stats Wind Profile Meteogram Temp Stats Airport Information Weather charts Add Link Nearby VenuesMetar ALERT Operation Metar Decoded Social comments